Time;durP1;ratioP1;P1;durP2;ratioP2;P2;SDS_P1;SDS_P2;PMS_P1;PMS_P2;Temp;Humidity;BMP_temperature;BMP_pressure;BME280_temperature;BME280_humidity;BME280_pressure;Samples;Min_cycle;Max_cycle;Signal;HPM_P1;HPM_P2
2022/06/05 00:01:20;;;;;;;4.38;3.97;;;22.10;50.70;;;;;;5004281;28;20378;-53
2022/06/05 00:03:55;;;;;;;5.78;4.15;;;22.10;50.80;;;;;;5006505;28;20064;-52
2022/06/05 00:06:31;;;;;;;5.05;4.03;;;22.00;50.80;;;;;;5004730;28;20057;-50
2022/06/05 00:09:13;;;;;;;4.60;4.07;;;22.00;50.80;;;;;;5007995;28;21801;-54
2022/06/05 00:11:51;;;;;;;6.78;4.10;;;22.00;50.90;;;;;;5005667;28;20049;-55
2022/06/05 00:14:19;;;;;;;7.00;3.85;;;22.00;51.00;;;;;;5001835;28;20070;-55
2022/06/05 00:16:48;;;;;;;5.68;4.18;;;21.90;50.80;;;;;;5003297;28;20394;-53
2022/06/05 00:19:15;;;;;;;7.25;4.13;;;22.00;50.90;;;;;;5006506;28;20060;-49
2022/06/05 00:21:43;;;;;;;4.22;3.80;;;21.90;51.00;;;;;;5006546;28;20053;-53
2022/06/05 00:24:10;;;;;;;3.92;3.53;;;21.90;51.00;;;;;;5021066;28;20056;-52
2022/06/05 00:26:52;;;;;;;5.07;3.88;;;21.90;50.90;;;;;;5015627;28;20069;-53
2022/06/05 00:29:28;;;;;;;5.38;4.32;;;21.90;51.10;;;;;;5003828;28;20165;-54
2022/06/05 00:32:08;;;;;;;4.63;4.05;;;21.80;51.00;;;;;;5009580;28;20057;-51
2022/06/05 00:34:36;;;;;;;3.83;3.45;;;21.90;51.10;;;;;;5009943;28;20050;-55
2022/06/05 00:37:15;;;;;;;5.88;3.72;;;21.80;51.00;;;;;;5021810;28;21335;-53
2022/06/05 00:39:49;;;;;;;4.38;3.70;;;21.80;51.20;;;;;;5018150;28;20083;-54
2022/06/05 00:42:20;;;;;;;4.25;3.78;;;21.80;51.50;;;;;;5023064;28;20053;-56
2022/06/05 00:44:50;;;;;;;5.07;3.90;;;21.80;51.10;;;;;;5022632;28;20061;-54
2022/06/05 00:47:22;;;;;;;13.57;4.10;;;21.70;51.00;;;;;;5015436;28;20053;-54
2022/06/05 00:49:54;;;;;;;5.22;4.18;;;21.70;51.20;;;;;;5006316;28;20612;-53
2022/06/05 00:52:24;;;;;;;7.78;4.55;;;21.70;51.40;;;;;;5007035;28;22095;-54
2022/06/05 00:54:52;;;;;;;7.43;3.97;;;21.70;51.30;;;;;;5004873;28;20404;-52
2022/06/05 00:57:20;;;;;;;4.25;3.85;;;21.70;51.30;;;;;;5006368;28;20064;-55
2022/06/05 00:59:49;;;;;;;5.68;3.80;;;21.70;51.30;;;;;;5002060;28;20053;-54
2022/06/05 01:02:19;;;;;;;5.00;3.60;;;21.60;51.40;;;;;;5008387;28;20485;-53
2022/06/05 01:04:50;;;;;;;5.60;4.22;;;21.60;51.40;;;;;;5004885;28;20068;-53
2022/06/05 01:07:19;;;;;;;6.60;4.28;;;21.60;51.50;;;;;;5001465;28;20057;-56
2022/06/05 01:09:49;;;;;;;5.50;4.05;;;21.60;51.50;;;;;;5005802;28;20064;-56
2022/06/05 01:12:31;;;;;;;5.18;3.97;;;21.60;51.60;;;;;;5002264;28;20049;-53
2022/06/05 01:15:10;;;;;;;4.80;3.67;;;21.50;51.60;;;;;;4999090;28;20054;-48
2022/06/05 01:17:45;;;;;;;5.35;4.05;;;21.60;51.60;;;;;;5003365;28;20050;-55
2022/06/05 01:20:20;;;;;;;4.47;3.95;;;21.50;51.70;;;;;;5003145;28;20585;-54
2022/06/05 01:23:12;;;;;;;5.72;4.38;;;21.50;51.70;;;;;;5001650;28;20727;-54
2022/06/05 01:26:00;;;;;;;4.65;3.88;;;21.50;51.80;;;;;;5002830;28;20061;-53
2022/06/05 01:28:31;;;;;;;7.38;3.80;;;21.40;51.60;;;;;;5002637;28;20061;-54
2022/06/05 01:31:06;;;;;;;4.20;3.70;;;21.40;51.50;;;;;;5005626;28;20052;-54
2022/06/05 01:33:38;;;;;;;4.00;3.60;;;21.40;51.60;;;;;;5005046;28;20049;-55
2022/06/05 01:36:13;;;;;;;5.13;4.10;;;21.40;51.60;;;;;;4999829;28;20061;-51
2022/06/05 01:38:48;;;;;;;4.90;4.28;;;21.40;51.90;;;;;;5006336;28;20829;-56
2022/06/05 01:41:21;;;;;;;4.72;4.20;;;21.30;51.80;;;;;;5000697;28;20072;-52
2022/06/05 01:43:53;;;;;;;4.47;4.07;;;21.30;51.90;;;;;;5001774;28;20068;-52
2022/06/05 01:46:25;;;;;;;5.00;4.30;;;21.30;51.90;;;;;;5011562;28;20053;-53
2022/06/05 01:48:59;;;;;;;6.07;4.60;;;21.30;52.00;;;;;;5002235;28;20045;-54
2022/06/05 01:51:30;;;;;;;5.28;4.30;;;21.30;52.00;;;;;;5000133;28;20049;-53
2022/06/05 01:54:01;;;;;;;4.32;3.72;;;21.30;52.00;;;;;;5005324;28;20068;-54
2022/06/05 01:56:37;;;;;;;5.18;4.18;;;21.20;51.90;;;;;;5004538;28;20128;-54
2022/06/05 01:59:11;;;;;;;4.72;3.90;;;21.20;52.10;;;;;;5001392;28;20050;-52
2022/06/05 02:01:43;;;;;;;5.43;4.03;;;21.20;52.10;;;;;;5005603;28;20084;-53
2022/06/05 02:04:16;;;;;;;4.10;3.70;;;21.20;52.10;;;;;;5003083;28;20520;-53
2022/06/05 02:06:47;;;;;;;5.78;4.20;;;21.10;52.10;;;;;;5001922;28;20056;-51
2022/06/05 02:09:20;;;;;;;4.65;3.65;;;21.10;52.60;;;;;;5004696;28;20045;-54
2022/06/05 02:11:49;;;;;;;5.25;4.10;;;21.10;52.20;;;;;;4998500;28;20053;-56
2022/06/05 02:14:17;;;;;;;4.75;3.83;;;21.10;52.10;;;;;;5004882;28;20054;-54
2022/06/05 02:16:45;;;;;;;3.90;3.58;;;21.00;52.00;;;;;;5003066;28;20057;-53
2022/06/05 02:19:17;;;;;;;5.22;3.88;;;21.00;52.10;;;;;;4998232;28;21153;-53
2022/06/05 02:21:45;;;;;;;3.70;3.30;;;20.90;52.10;;;;;;5000969;28;20054;-52
2022/06/05 02:24:14;;;;;;;5.80;4.10;;;21.00;52.10;;;;;;5000161;28;21039;-51
2022/06/05 02:26:42;;;;;;;4.65;3.78;;;20.90;52.10;;;;;;5003603;28;20049;-57
2022/06/05 02:29:13;;;;;;;4.30;3.90;;;20.90;52.20;;;;;;5003964;28;20515;-53
2022/06/05 02:31:52;;;;;;;4.55;4.00;;;20.90;52.30;;;;;;5001124;28;20392;-56
2022/06/05 02:34:31;;;;;;;4.80;3.85;;;20.90;52.40;;;;;;4999855;28;20054;-53
2022/06/05 02:37:20;;;;;;;4.68;4.00;;;20.90;52.50;;;;;;5002528;28;20037;-50
2022/06/05 02:40:05;;;;;;;5.10;4.18;;;20.80;52.40;;;;;;5001659;28;20057;-52
2022/06/05 02:42:37;;;;;;;6.13;3.80;;;20.80;52.40;;;;;;5004237;28;20061;-54
2022/06/05 02:45:15;;;;;;;4.95;4.00;;;20.80;52.40;;;;;;4999525;28;20050;-51
2022/06/05 02:47:50;;;;;;;5.65;4.57;;;20.80;52.50;;;;;;5000993;28;20509;-55
2022/06/05 02:50:24;;;;;;;5.43;4.20;;;20.70;52.50;;;;;;5007929;28;20056;-55
2022/06/05 02:52:52;;;;;;;4.53;3.72;;;20.70;52.60;;;;;;5003025;28;20053;-54
2022/06/05 02:55:22;;;;;;;4.68;3.95;;;20.70;52.50;;;;;;5003227;28;20521;-55
2022/06/05 02:57:50;;;;;;;4.47;4.07;;;20.70;52.50;;;;;;5000750;28;20065;-53
2022/06/05 03:00:22;;;;;;;7.22;3.95;;;20.70;52.60;;;;;;4999450;28;20068;-51
2022/06/05 03:05:36;;;;;;;4.15;3.60;;;20.60;52.70;;;;;;5009151;28;20057;-54
2022/06/05 03:08:05;;;;;;;4.43;3.90;;;20.60;52.80;;;;;;5001671;28;20524;-55
2022/06/05 03:10:33;;;;;;;4.20;3.80;;;20.60;52.90;;;;;;5005018;28;21115;-54
2022/06/05 03:13:01;;;;;;;4.30;3.70;;;20.60;53.10;;;;;;4999958;28;20068;-53
2022/06/05 03:15:31;;;;;;;4.93;4.30;;;20.60;53.20;;;;;;5005315;28;20413;-56
2022/06/05 03:17:58;;;;;;;6.63;4.20;;;20.60;53.30;;;;;;5000368;28;20050;-53
2022/06/05 03:20:26;;;;;;;4.43;3.88;;;20.60;53.40;;;;;;5000482;28;20124;-54
2022/06/05 03:22:54;;;;;;;3.90;3.60;;;20.60;53.60;;;;;;5003664;28;20507;-55
2022/06/05 03:25:24;;;;;;;4.78;3.92;;;20.60;53.60;;;;;;5003257;28;20512;-55
2022/06/05 03:27:51;;;;;;;6.10;4.35;;;20.60;53.60;;;;;;5002041;28;20068;-53
2022/06/05 03:30:19;;;;;;;4.75;4.20;;;20.60;53.50;;;;;;5004597;28;20053;-54
2022/06/05 03:32:48;;;;;;;5.47;4.00;;;20.60;53.40;;;;;;5007209;28;20142;-54
2022/06/05 03:35:17;;;;;;;4.65;3.88;;;20.60;53.40;;;;;;5001198;28;20196;-57
2022/06/05 03:37:45;;;;;;;4.95;4.00;;;20.60;53.30;;;;;;5004169;28;20054;-53
2022/06/05 03:40:15;;;;;;;6.43;3.60;;;20.60;53.40;;;;;;5010199;28;20060;-55
2022/06/05 03:42:42;;;;;;;4.38;3.45;;;20.60;53.30;;;;;;5003667;28;20053;-52
2022/06/05 03:45:13;;;;;;;4.72;3.80;;;20.60;53.20;;;;;;5008317;28;20062;-51
2022/06/05 03:47:41;;;;;;;4.32;3.90;;;20.60;53.20;;;;;;5006588;28;20065;-55
2022/06/05 03:50:12;;;;;;;5.95;3.97;;;20.60;53.10;;;;;;5004134;28;20516;-53
2022/06/05 03:52:40;;;;;;;3.85;3.45;;;20.60;53.10;;;;;;5009430;28;20060;-53
2022/06/05 03:55:08;;;;;;;4.18;3.78;;;20.60;53.10;;;;;;5004267;28;20709;-52
2022/06/05 03:57:35;;;;;;;4.65;3.95;;;20.60;53.00;;;;;;5004714;28;20049;-50
2022/06/05 04:00:04;;;;;;;4.15;3.60;;;20.60;53.00;;;;;;5002714;28;20504;-55
2022/06/05 04:02:31;;;;;;;3.67;3.38;;;20.60;53.00;;;;;;5006543;28;20397;-55
2022/06/05 04:05:00;;;;;;;4.80;3.75;;;20.60;52.90;;;;;;5008416;28;20061;-55
2022/06/05 04:07:29;;;;;;;5.22;3.83;;;20.60;53.00;;;;;;5003336;28;20054;-56
2022/06/05 04:09:57;;;;;;;4.85;3.92;;;20.60;52.90;;;;;;5002132;28;20053;-55
2022/06/05 04:12:25;;;;;;;5.68;4.38;;;20.60;53.00;;;;;;5003981;28;20057;-56
2022/06/05 04:14:52;;;;;;;4.72;3.92;;;20.60;53.00;;;;;;5002504;28;21369;-54
2022/06/05 04:17:19;;;;;;;3.97;3.58;;;20.60;53.00;;;;;;5005108;28;20057;-54
2022/06/05 04:19:47;;;;;;;7.28;4.28;;;20.60;53.10;;;;;;5003526;28;20662;-53
2022/06/05 04:22:14;;;;;;;5.07;4.00;;;20.60;53.20;;;;;;5004966;28;20060;-51
2022/06/05 04:24:43;;;;;;;9.10;4.65;;;20.60;53.40;;;;;;5002630;28;20050;-54
2022/06/05 04:27:10;;;;;;;5.72;4.13;;;20.60;53.50;;;;;;5004852;28;20091;-56
2022/06/05 04:29:38;;;;;;;4.63;4.18;;;20.60;53.50;;;;;;5004736;28;20079;-48
2022/06/05 04:32:06;;;;;;;6.13;4.53;;;20.60;53.40;;;;;;5005576;28;20529;-53
2022/06/05 04:34:35;;;;;;;5.88;4.50;;;20.60;53.50;;;;;;5007545;28;20065;-51
2022/06/05 04:37:02;;;;;;;5.03;4.30;;;20.60;53.60;;;;;;5006742;28;20057;-54
2022/06/05 04:39:30;;;;;;;4.97;4.22;;;20.60;53.70;;;;;;5006344;28;20493;-52
2022/06/05 04:41:59;;;;;;;4.30;3.90;;;20.60;53.70;;;;;;5005380;28;20068;-51
2022/06/05 04:44:26;;;;;;;4.63;4.22;;;20.60;53.80;;;;;;5001736;28;20417;-51
2022/06/05 04:46:54;;;;;;;6.10;4.07;;;20.60;53.80;;;;;;5006291;28;20057;-53
2022/06/05 04:49:21;;;;;;;4.70;4.18;;;20.60;53.90;;;;;;5002584;28;20490;-52
2022/06/05 04:51:49;;;;;;;5.82;4.25;;;20.70;54.10;;;;;;5005321;28;20418;-53
2022/06/05 04:54:18;;;;;;;4.78;3.78;;;20.70;54.10;;;;;;5005410;28;22193;-54
2022/06/05 04:56:46;;;;;;;4.40;3.97;;;20.70;54.10;;;;;;5001281;28;20069;-55
2022/06/05 04:59:15;;;;;;;4.85;3.65;;;20.70;54.10;;;;;;5004755;28;20519;-50
2022/06/05 05:01:43;;;;;;;4.50;4.07;;;20.80;54.20;;;;;;5005770;28;20409;-55
2022/06/05 05:04:12;;;;;;;6.57;4.45;;;20.80;54.30;;;;;;5004167;28;20045;-51
2022/06/05 05:06:41;;;;;;;4.32;3.92;;;20.80;54.30;;;;;;5002191;28;20053;-49
2022/06/05 05:09:09;;;;;;;5.30;3.88;;;20.80;54.30;;;;;;5005911;28;20057;-53
2022/06/05 05:11:37;;;;;;;6.15;4.50;;;20.80;54.30;;;;;;5000359;28;20053;-55
2022/06/05 05:14:05;;;;;;;4.57;4.18;;;20.80;54.40;;;;;;5002956;28;20057;-49
2022/06/05 05:16:34;;;;;;;5.93;4.45;;;20.90;54.60;;;;;;5008669;28;20421;-52
2022/06/05 05:19:01;;;;;;;6.00;4.60;;;20.90;54.50;;;;;;5005228;28;20049;-53
2022/06/05 05:21:29;;;;;;;4.85;4.35;;;20.90;54.60;;;;;;5002458;28;20045;-48
2022/06/05 05:23:57;;;;;;;7.40;4.60;;;20.90;54.60;;;;;;5002343;28;20064;-48
2022/06/05 05:26:27;;;;;;;4.90;4.40;;;20.90;54.60;;;;;;5010117;28;20519;-51
2022/06/05 05:28:55;;;;;;;5.38;4.88;;;20.90;54.50;;;;;;5007614;28;20064;-52
2022/06/05 05:31:25;;;;;;;5.30;4.80;;;20.90;54.50;;;;;;5011603;28;20056;-51
2022/06/05 05:33:55;;;;;;;8.07;5.00;;;21.00;54.60;;;;;;5006739;28;20133;-56
2022/06/05 05:36:24;;;;;;;33.78;18.38;;;21.00;54.50;;;;;;5003186;28;20065;-57
2022/06/05 05:44:30;;;;;;;8.60;6.43;;;21.00;54.40;;;;;;5010157;28;20056;-55
2022/06/05 05:46:58;;;;;;;6.13;5.53;;;21.00;54.40;;;;;;5003071;28;20559;-53
2022/06/05 05:49:26;;;;;;;6.80;5.70;;;21.10;54.40;;;;;;5003300;28;20087;-49
2022/06/05 05:51:54;;;;;;;6.43;4.95;;;21.10;54.40;;;;;;5000740;28;20801;-51
2022/06/05 05:54:21;;;;;;;5.03;4.53;;;21.10;54.30;;;;;;5004561;28;20286;-50
2022/06/05 05:56:51;;;;;;;6.47;4.72;;;21.10;54.30;;;;;;5006534;28;20520;-51
2022/06/05 05:59:19;;;;;;;5.45;4.90;;;21.20;54.30;;;;;;5006293;28;20049;-56
2022/06/05 06:01:47;;;;;;;5.50;4.85;;;21.20;54.20;;;;;;5009416;28;20420;-52
2022/06/05 06:04:15;;;;;;;6.35;5.38;;;21.20;54.20;;;;;;5021635;28;20433;-53
2022/06/05 06:06:45;;;;;;;6.25;5.65;;;21.20;54.20;;;;;;5016824;28;20060;-55
2022/06/05 06:09:13;;;;;;;6.38;5.07;;;21.20;54.20;;;;;;5021172;28;20041;-54
2022/06/05 06:11:41;;;;;;;5.70;4.90;;;21.20;54.10;;;;;;5012265;28;20064;-55
2022/06/05 06:14:09;;;;;;;9.93;5.30;;;21.30;54.10;;;;;;5003708;28;20493;-52
2022/06/05 06:16:36;;;;;;;5.50;4.85;;;21.30;54.10;;;;;;5007532;28;20053;-55
2022/06/05 06:19:05;;;;;;;6.00;5.40;;;21.30;54.10;;;;;;4998941;28;20058;-54
2022/06/05 06:21:32;;;;;;;10.00;5.45;;;21.30;54.00;;;;;;5002798;28;20477;-55
2022/06/05 06:24:01;;;;;;;9.38;5.40;;;21.30;54.00;;;;;;4998995;28;20635;-51
2022/06/05 06:26:29;;;;;;;6.00;5.10;;;21.40;54.00;;;;;;5005847;28;20061;-54
2022/06/05 06:28:57;;;;;;;5.57;4.72;;;21.40;54.00;;;;;;5005004;28;20045;-55
2022/06/05 06:31:24;;;;;;;5.60;4.97;;;21.40;54.00;;;;;;5001013;28;20064;-51
2022/06/05 06:33:52;;;;;;;11.90;8.30;;;21.40;54.00;;;;;;5004822;28;20053;-55
2022/06/05 06:36:20;;;;;;;12.50;9.75;;;21.50;54.10;;;;;;4999883;28;20058;-53
2022/06/05 06:38:48;;;;;;;6.45;5.75;;;21.50;54.20;;;;;;5001939;28;20056;-54
2022/06/05 06:41:20;;;;;;;6.22;5.25;;;21.50;54.20;;;;;;5005955;28;20596;-53
2022/06/05 06:43:49;;;;;;;5.32;4.82;;;21.50;54.10;;;;;;4999018;28;20500;-53
2022/06/05 06:46:18;;;;;;;5.55;5.05;;;21.60;54.10;;;;;;5000055;28;20056;-53
2022/06/05 06:48:45;;;;;;;6.10;4.78;;;21.60;54.10;;;;;;4998725;28;20045;-54
2022/06/05 06:51:14;;;;;;;7.03;5.00;;;21.60;54.40;;;;;;5003025;28;20049;-51
2022/06/05 06:53:45;;;;;;;7.63;5.68;;;21.70;54.50;;;;;;4998156;28;20064;-51
2022/06/05 06:56:17;;;;;;;5.65;5.05;;;21.70;54.60;;;;;;5001969;28;20072;-51
2022/06/05 06:58:46;;;;;;;6.07;5.22;;;21.80;54.60;;;;;;4999270;28;20444;-51
2022/06/05 07:01:14;;;;;;;4.97;4.47;;;21.80;54.50;;;;;;4999362;28;20053;-50
2022/06/05 07:03:42;;;;;;;6.32;5.05;;;21.80;54.50;;;;;;5003439;28;20054;-50
2022/06/05 07:06:12;;;;;;;8.10;5.53;;;21.90;54.40;;;;;;4997073;28;20053;-52
2022/06/05 07:08:40;;;;;;;5.68;4.93;;;21.90;54.50;;;;;;5002431;28;20065;-52
2022/06/05 07:11:09;;;;;;;6.82;4.65;;;22.00;54.70;;;;;;5001799;28;21106;-51
2022/06/05 07:13:37;;;;;;;7.35;4.80;;;22.00;54.60;;;;;;4998798;28;20065;-49
2022/06/05 07:16:08;;;;;;;6.00;4.78;;;22.00;54.60;;;;;;5001940;28;20050;-52
2022/06/05 07:18:36;;;;;;;8.77;5.32;;;22.10;54.50;;;;;;4999496;28;20053;-51
2022/06/05 07:21:08;;;;;;;5.63;5.00;;;22.10;54.50;;;;;;5002346;28;20053;-50
2022/06/05 07:23:36;;;;;;;7.22;4.82;;;22.20;54.60;;;;;;5003597;28;20058;-52
2022/06/05 07:26:04;;;;;;;6.03;5.15;;;22.20;54.60;;;;;;5001910;28;20086;-49
2022/06/05 07:28:31;;;;;;;5.70;5.10;;;22.30;54.80;;;;;;5005379;28;20057;-49
2022/06/05 07:31:01;;;;;;;5.22;4.60;;;22.30;54.50;;;;;;4996490;28;20423;-56
2022/06/05 07:33:32;;;;;;;5.28;4.75;;;22.40;54.30;;;;;;4996036;28;20053;-51
2022/06/05 07:36:03;;;;;;;9.75;5.28;;;22.50;54.50;;;;;;4994286;28;20049;-50
2022/06/05 07:38:30;;;;;;;5.30;4.80;;;22.50;54.40;;;;;;4997534;28;20056;-50
2022/06/05 07:40:58;;;;;;;5.22;4.63;;;22.60;54.50;;;;;;4992884;28;20063;-48
2022/06/05 07:43:25;;;;;;;7.88;5.07;;;22.70;54.40;;;;;;4992092;28;20061;-51
2022/06/05 07:45:53;;;;;;;5.97;5.18;;;22.70;54.10;;;;;;4993172;28;20057;-52
2022/06/05 07:48:20;;;;;;;5.32;4.63;;;22.80;54.10;;;;;;4992853;28;20690;-52
2022/06/05 07:56:30;;;;;;;6.82;4.65;;;22.90;54.20;;;;;;4997181;28;20064;-52
2022/06/05 07:58:58;;;;;;;5.78;5.00;;;23.00;54.10;;;;;;4993763;28;20056;-49
2022/06/05 08:01:25;;;;;;;5.90;4.97;;;23.00;53.90;;;;;;4991116;28;20050;-56
2022/06/05 08:03:53;;;;;;;5.03;4.60;;;23.00;54.00;;;;;;4995812;28;20077;-52
2022/06/05 08:06:22;;;;;;;5.60;5.00;;;22.90;54.10;;;;;;4993660;28;20053;-52
2022/06/05 08:08:49;;;;;;;5.00;4.38;;;22.90;54.30;;;;;;4993587;28;20053;-51
2022/06/05 08:11:17;;;;;;;7.53;5.40;;;22.90;54.30;;;;;;4991256;28;20069;-53
2022/06/05 08:13:45;;;;;;;7.57;5.60;;;22.90;54.60;;;;;;4997241;28;20049;-55
2022/06/05 08:16:13;;;;;;;5.22;4.72;;;22.90;54.90;;;;;;5003554;28;20061;-53
2022/06/05 08:18:40;;;;;;;6.25;4.85;;;22.90;54.80;;;;;;4999494;28;20741;-53
2022/06/05 08:21:08;;;;;;;8.73;5.22;;;22.90;55.30;;;;;;4992821;28;20057;-54
2022/06/05 08:23:37;;;;;;;6.95;5.57;;;22.90;54.80;;;;;;4993414;28;20489;-51
2022/06/05 08:26:05;;;;;;;27.85;16.27;;;22.90;55.00;;;;;;4996251;28;20534;-53
2022/06/05 08:28:32;;;;;;;25.27;14.52;;;22.80;54.90;;;;;;4997810;28;20060;-53
2022/06/05 08:31:01;;;;;;;9.48;6.93;;;22.80;55.10;;;;;;4998321;28;20053;-51
2022/06/05 08:33:29;;;;;;;8.35;5.53;;;22.80;55.30;;;;;;5004475;28;20061;-52
2022/06/05 08:35:56;;;;;;;5.85;5.25;;;22.80;55.40;;;;;;5003609;28;20076;-54
2022/06/05 08:41:31;;;;;;;8.10;5.22;;;22.80;55.50;;;;;;5011286;28;20420;-50
2022/06/05 08:44:05;;;;;;;9.18;5.95;;;22.70;55.50;;;;;;5002325;28;20053;-52
2022/06/05 08:46:40;;;;;;;5.78;5.22;;;22.70;55.60;;;;;;5007257;28;20062;-50
2022/06/05 08:49:12;;;;;;;5.47;4.80;;;22.70;55.70;;;;;;5001058;28;20421;-54
2022/06/05 08:51:48;;;;;;;6.30;5.25;;;22.70;55.90;;;;;;5006478;28;20053;-49
2022/06/05 08:54:19;;;;;;;5.40;4.90;;;22.60;55.90;;;;;;5003078;28;20053;-54
2022/06/05 08:56:54;;;;;;;7.80;5.82;;;22.60;56.00;;;;;;5004593;28;20057;-52
2022/06/05 08:59:26;;;;;;;7.68;6.13;;;22.60;56.30;;;;;;5002937;28;20057;-50
2022/06/05 09:02:00;;;;;;;5.88;5.28;;;22.50;56.30;;;;;;5003740;28;20053;-51
2022/06/05 09:04:54;;;;;;;9.43;6.65;;;22.50;56.40;;;;;;5002111;28;20064;-51
2022/06/05 09:07:26;;;;;;;7.77;6.03;;;22.50;56.50;;;;;;4999915;28;20072;-50
2022/06/05 09:09:59;;;;;;;10.65;6.25;;;22.50;56.60;;;;;;5000292;28;20057;-51
2022/06/05 09:12:36;;;;;;;6.10;5.50;;;22.50;56.90;;;;;;5003222;28;20049;-49
2022/06/05 09:15:16;;;;;;;10.30;6.35;;;22.40;57.00;;;;;;5004386;28;20518;-54
2022/06/05 09:17:53;;;;;;;5.88;5.32;;;22.40;57.00;;;;;;5002706;28;20413;-51
2022/06/05 09:20:27;;;;;;;7.88;6.40;;;22.40;56.90;;;;;;4988395;28;20049;-50
2022/06/05 09:23:02;;;;;;;8.00;5.72;;;22.30;57.20;;;;;;4994164;28;20433;-51
2022/06/05 09:25:42;;;;;;;7.15;5.95;;;22.30;57.20;;;;;;4993526;28;20057;-51
2022/06/05 09:28:44;;;;;;;7.20;6.10;;;22.30;57.10;;;;;;4995855;28;20060;-48
2022/06/05 09:31:29;;;;;;;6.30;5.70;;;22.30;57.50;;;;;;4993020;28;20049;-52
2022/06/05 09:34:00;;;;;;;6.70;5.90;;;22.20;57.50;;;;;;4996229;28;20057;-52
2022/06/05 09:36:30;;;;;;;8.15;5.90;;;22.20;57.50;;;;;;4992599;28;20501;-50
2022/06/05 09:39:03;;;;;;;7.70;6.00;;;22.20;57.60;;;;;;4991369;28;20058;-50
2022/06/05 09:41:43;;;;;;;7.60;5.78;;;22.10;57.50;;;;;;5003991;28;20470;-52
2022/06/05 09:44:24;;;;;;;7.60;6.47;;;22.10;57.60;;;;;;4999293;28;20054;-50
2022/06/05 09:46:59;;;;;;;9.38;6.65;;;22.10;57.90;;;;;;5000322;28;20502;-49
2022/06/05 09:49:35;;;;;;;7.13;6.43;;;22.10;57.90;;;;;;4999562;28;20055;-50
2022/06/05 09:52:12;;;;;;;8.02;6.60;;;22.10;58.10;;;;;;5004197;28;20045;-49
2022/06/05 09:54:44;;;;;;;6.40;5.80;;;22.10;58.30;;;;;;5000023;28;20054;-51
2022/06/05 10:00:31;;;;;;;7.53;6.63;;;22.00;58.50;;;;;;5008790;28;20069;-52
2022/06/05 10:03:02;;;;;;;7.72;6.68;;;22.00;58.60;;;;;;4989465;28;21062;-51
2022/06/05 10:05:32;;;;;;;7.93;5.93;;;22.00;59.20;;;;;;4990514;28;20421;-51
2022/06/05 10:08:06;;;;;;;7.78;6.55;;;22.00;58.70;;;;;;4992532;28;20056;-49
2022/06/05 10:10:37;;;;;;;8.02;6.30;;;22.00;59.10;;;;;;4994408;28;20050;-53
2022/06/05 10:13:16;;;;;;;7.30;6.53;;;22.00;59.10;;;;;;4991219;28;20413;-53
2022/06/05 10:15:53;;;;;;;7.53;6.13;;;22.00;59.20;;;;;;4987522;28;20054;-54
2022/06/05 10:18:27;;;;;;;9.05;7.10;;;22.10;59.70;;;;;;4992756;28;21324;-49
2022/06/05 10:21:01;;;;;;;9.32;6.65;;;22.10;59.30;;;;;;4985465;28;20837;-50
2022/06/05 10:23:50;;;;;;;8.30;6.82;;;22.10;59.40;;;;;;5224900;22;20058;-50
2022/06/05 10:26:39;;;;;;;6.95;6.25;;;22.20;59.50;;;;;;5005740;28;21698;-53
2022/06/05 10:29:17;;;;;;;7.13;6.40;;;22.20;59.40;;;;;;5000706;28;20049;-55
2022/06/05 10:31:57;;;;;;;8.82;7.60;;;22.20;59.40;;;;;;5007430;28;20057;-54
2022/06/05 10:34:39;;;;;;;8.45;7.03;;;22.30;59.50;;;;;;4993874;28;20064;-50
2022/06/05 10:37:18;;;;;;;9.30;8.05;;;22.30;59.30;;;;;;4993720;28;20689;-54
2022/06/05 10:40:11;;;;;;;8.77;7.43;;;22.30;59.90;;;;;;5004269;28;20049;-51
2022/06/05 10:42:47;;;;;;;8.02;7.07;;;22.30;59.90;;;;;;5005286;28;20064;-49
2022/06/05 10:45:41;;;;;;;8.15;7.35;;;22.40;59.70;;;;;;4999468;28;20049;-51
2022/06/05 10:48:26;;;;;;;7.60;6.80;;;22.40;59.80;;;;;;4988606;28;20053;-51
2022/06/05 10:51:00;;;;;;;8.00;7.18;;;22.50;59.70;;;;;;4999967;28;20057;-52
2022/06/05 10:53:34;;;;;;;8.50;7.47;;;22.60;59.80;;;;;;5000128;28;20057;-51
2022/06/05 10:56:13;;;;;;;8.80;7.50;;;22.60;59.70;;;;;;4999529;28;20061;-52
2022/06/05 10:58:44;;;;;;;7.32;6.53;;;22.60;59.80;;;;;;5002156;28;20084;-49
2022/06/05 11:01:46;;;;;;;8.82;7.47;;;22.70;59.80;;;;;;5005532;28;20045;-52
2022/06/05 11:04:28;;;;;;;8.43;6.97;;;22.80;60.20;;;;;;5008827;28;20424;-54
2022/06/05 11:07:02;;;;;;;10.15;6.93;;;22.80;59.70;;;;;;5008894;28;20054;-51
2022/06/05 11:09:41;;;;;;;9.32;6.82;;;22.90;59.70;;;;;;5009905;28;20052;-51
2022/06/05 11:15:16;;;;;;;8.73;7.30;;;23.00;59.30;;;;;;5018603;28;20052;-53
2022/06/05 11:17:55;;;;;;;8.18;6.90;;;23.10;59.50;;;;;;5012800;28;20052;-54
2022/06/05 11:20:27;;;;;;;8.55;6.72;;;23.10;58.60;;;;;;5008404;28;20496;-51
2022/06/05 11:22:59;;;;;;;7.85;7.05;;;23.20;58.60;;;;;;5003520;28;20067;-51
2022/06/05 11:25:30;;;;;;;7.80;7.10;;;23.20;58.40;;;;;;5015243;28;20063;-53
2022/06/05 11:28:26;;;;;;;7.25;6.38;;;23.20;58.30;;;;;;5015027;28;20061;-53
2022/06/05 11:31:09;;;;;;;11.10;8.48;;;23.20;58.20;;;;;;5002228;28;20053;-52
2022/06/05 11:33:47;;;;;;;7.32;6.53;;;23.30;58.90;;;;;;5022731;28;20053;-53
2022/06/05 11:36:21;;;;;;;7.82;6.82;;;23.30;58.30;;;;;;5024035;28;20507;-52
2022/06/05 11:39:03;;;;;;;9.27;7.55;;;23.30;58.20;;;;;;5021706;28;20064;-53
2022/06/05 11:41:38;;;;;;;8.25;7.45;;;23.30;58.40;;;;;;5015839;28;20049;-53
2022/06/05 11:44:27;;;;;;;7.38;6.68;;;23.40;58.60;;;;;;5014198;28;20049;-52
2022/06/05 11:47:02;;;;;;;7.00;6.30;;;23.50;58.50;;;;;;5017877;28;20065;-52
2022/06/05 11:49:40;;;;;;;6.93;6.20;;;23.50;58.30;;;;;;5027237;28;20480;-49
2022/06/05 11:52:17;;;;;;;8.07;6.95;;;23.50;58.60;;;;;;5021887;28;20504;-53
2022/06/05 11:54:52;;;;;;;7.00;6.30;;;23.60;58.10;;;;;;5021412;28;20068;-53
2022/06/05 11:57:26;;;;;;;8.40;7.32;;;23.60;58.00;;;;;;5023816;28;20057;-52
2022/06/05 12:00:01;;;;;;;8.40;7.15;;;23.60;58.20;;;;;;5024000;28;20044;-49
2022/06/05 12:02:43;;;;;;;8.30;7.30;;;23.60;58.70;;;;;;5030095;28;20389;-50
2022/06/05 12:05:19;;;;;;;7.30;6.53;;;23.70;57.90;;;;;;5029147;28;20068;-54
2022/06/05 12:07:50;;;;;;;7.35;6.65;;;23.70;57.80;;;;;;5029868;28;20740;-52
2022/06/05 12:10:23;;;;;;;10.18;8.13;;;23.70;57.60;;;;;;5034118;28;20050;-48
2022/06/05 12:13:02;;;;;;;11.43;7.63;;;23.70;57.60;;;;;;5029551;28;20504;-53
2022/06/05 12:15:50;;;;;;;8.80;7.90;;;23.60;57.60;;;;;;5029913;28;20492;-49
2022/06/05 12:18:23;;;;;;;8.23;6.88;;;23.60;57.90;;;;;;5035113;28;20060;-49
2022/06/05 12:20:56;;;;;;;7.82;7.13;;;23.60;57.60;;;;;;5026970;28;20049;-50
2022/06/05 12:23:32;;;;;;;11.32;7.55;;;23.60;58.00;;;;;;5028248;28;20518;-51
2022/06/05 12:26:03;;;;;;;7.95;7.15;;;23.50;58.10;;;;;;5044327;28;20049;-52
2022/06/05 12:28:38;;;;;;;8.57;7.57;;;23.50;58.20;;;;;;5036986;28;20056;-51
2022/06/05 12:31:13;;;;;;;8.32;7.43;;;23.50;58.40;;;;;;5043614;28;20048;-54
2022/06/05 12:33:48;;;;;;;11.57;8.00;;;23.50;58.80;;;;;;5044913;28;20056;-54
2022/06/05 12:36:22;;;;;;;8.93;8.05;;;23.60;58.80;;;;;;5042860;28;20053;-53
2022/06/05 12:38:56;;;;;;;8.45;7.55;;;23.60;58.90;;;;;;5043216;28;20411;-50
2022/06/05 12:41:25;;;;;;;;;;;23.60;58.60;;;;;;5038174;28;20049;-51
2022/06/05 12:44:07;;;;;;;9.43;7.60;;;23.70;58.50;;;;;;5043998;28;20400;-51
2022/06/05 12:46:42;;;;;;;7.32;6.63;;;23.70;58.80;;;;;;5043797;28;20053;-49
2022/06/05 12:49:25;;;;;;;9.32;7.63;;;23.70;58.70;;;;;;5043674;28;20056;-53
2022/06/05 12:52:14;;;;;;;7.80;7.10;;;23.70;58.60;;;;;;5040323;28;20056;-49
2022/06/05 12:54:49;;;;;;;8.43;7.63;;;23.80;58.20;;;;;;5044351;28;20496;-53
2022/06/05 12:57:23;;;;;;;7.88;7.07;;;23.80;58.80;;;;;;5043648;28;20420;-54
2022/06/05 12:59:59;;;;;;;8.05;7.25;;;23.80;58.60;;;;;;5040198;28;20049;-50
2022/06/05 13:02:34;;;;;;;7.45;6.75;;;23.80;58.80;;;;;;5042335;28;20057;-50
2022/06/05 13:05:09;;;;;;;8.95;7.30;;;23.90;58.90;;;;;;5040903;28;20056;-49
2022/06/05 13:07:45;;;;;;;7.78;6.32;;;23.90;58.80;;;;;;5044153;28;20061;-50
2022/06/05 13:10:27;;;;;;;6.90;6.30;;;24.00;58.60;;;;;;5043740;28;20057;-55
2022/06/05 13:13:05;;;;;;;6.38;5.80;;;24.00;58.10;;;;;;5026817;28;20049;-51
2022/06/05 13:15:40;;;;;;;6.30;5.70;;;24.10;57.90;;;;;;5042902;28;20053;-51
2022/06/05 13:18:25;;;;;;;5.93;5.43;;;24.10;57.80;;;;;;5037916;28;20064;-54
2022/06/05 13:21:10;;;;;;;7.25;5.93;;;24.10;57.80;;;;;;5038327;28;20411;-55
2022/06/05 13:23:44;;;;;;;6.65;5.13;;;24.10;57.60;;;;;;5041927;28;20068;-51
2022/06/05 13:26:23;;;;;;;6.10;4.97;;;24.20;57.50;;;;;;5032831;28;20056;-52
2022/06/05 13:28:57;;;;;;;5.88;5.25;;;24.20;57.60;;;;;;5033693;28;20060;-54
2022/06/05 13:31:27;;;;;;;;;;;24.20;57.70;;;;;;5032344;28;20052;-53
2022/06/05 13:34:06;;;;;;;6.28;4.35;;;24.20;57.40;;;;;;5043770;28;19921;-54
2022/06/05 13:36:43;;;;;;;5.72;4.47;;;24.20;57.10;;;;;;5041294;28;20061;-54
2022/06/05 13:39:22;;;;;;;6.00;5.18;;;24.20;56.90;;;;;;5039301;28;20045;-53